Time;durP1;ratioP1;P1;durP2;ratioP2;P2;SDS_P1;SDS_P2;PMS_P1;PMS_P2;Temp;Humidity;BMP_temperature;BMP_pressure;BME280_temperature;BME280_humidity;BME280_pressure;Samples;Min_cycle;Max_cycle;Signal;HPM_P1;HPM_P2
2022/08/28 00:00:32;;;;;;;3.80;2.10;;;23.40;54.50;24.20;100905.00;;;;5048067;28;20174;-40
2022/08/28 00:02:58;;;;;;;3.47;2.20;;;23.40;54.80;24.20;100895.00;;;;5048710;28;20166;-40
2022/08/28 00:05:27;;;;;;;4.97;2.50;;;23.40;54.40;24.20;100906.00;;;;5048111;28;20163;-40
2022/08/28 00:07:53;;;;;;;3.67;2.30;;;23.40;54.40;24.20;100900.00;;;;5048248;28;20167;-40
2022/08/28 00:10:19;;;;;;;3.13;2.00;;;23.40;54.40;24.20;100908.00;;;;5048301;28;20205;-41
2022/08/28 00:12:47;;;;;;;5.10;2.30;;;23.40;54.40;24.20;100874.00;;;;5048552;28;20301;-40
2022/08/28 00:15:17;;;;;;;3.50;2.03;;;23.40;54.30;24.20;100915.00;;;;5048426;28;20225;-41
2022/08/28 00:17:43;;;;;;;3.67;2.10;;;23.50;54.30;24.20;100919.00;;;;5046395;28;20232;-41
2022/08/28 00:20:10;;;;;;;3.90;2.20;;;23.50;54.20;24.20;100923.00;;;;5048291;28;20186;-40
2022/08/28 00:22:37;;;;;;;3.50;2.00;;;23.50;54.20;24.30;100920.00;;;;5046533;28;20655;-41
2022/08/28 00:25:07;;;;;;;3.23;2.10;;;23.50;54.20;24.30;100908.00;;;;5047960;28;20162;-41
2022/08/28 00:30:23;;;;;;;3.50;2.10;;;23.50;54.30;24.30;100926.00;;;;5047845;28;20197;-40
2022/08/28 00:32:50;;;;;;;2.63;1.97;;;23.60;54.40;24.30;100916.00;;;;5046709;28;20635;-45
2022/08/28 00:35:16;;;;;;;4.03;2.23;;;23.50;54.30;24.30;100924.00;;;;5047806;28;20221;-40
2022/08/28 00:37:43;;;;;;;4.93;2.43;;;23.50;54.30;24.30;100933.00;;;;5047581;28;20162;-40
2022/08/28 00:40:10;;;;;;;4.40;2.40;;;23.50;54.20;24.20;100928.00;;;;5047887;28;20186;-40
2022/08/28 00:42:37;;;;;;;3.50;2.33;;;23.40;54.00;24.20;100927.00;;;;5047977;28;20178;-41
2022/08/28 00:45:04;;;;;;;4.13;2.30;;;23.50;54.00;24.20;100934.00;;;;5047961;28;20185;-40
2022/08/28 00:47:30;;;;;;;4.23;2.20;;;23.40;53.70;24.20;100934.00;;;;5047496;28;20238;-40
2022/08/28 00:49:56;;;;;;;3.00;2.20;;;23.50;53.90;24.20;100925.00;;;;5060096;28;20229;-40
2022/08/28 00:52:23;;;;;;;4.60;2.20;;;23.40;54.00;24.20;100916.00;;;;5057382;28;20177;-40
2022/08/28 00:55:10;;;;;;;4.40;2.20;;;23.40;53.90;24.20;100923.00;;;;5061946;28;20743;-40
2022/08/28 00:57:42;;;;;;;4.07;2.23;;;23.40;54.00;24.20;100923.00;;;;5047315;28;20280;-41
2022/08/28 01:00:11;;;;;;;3.47;2.27;;;23.40;54.10;24.10;100919.00;;;;5047537;28;20307;-40
2022/08/28 01:02:37;;;;;;;4.23;2.20;;;23.40;54.10;24.10;100924.00;;;;5047613;28;20166;-40
2022/08/28 01:05:07;;;;;;;3.43;2.13;;;23.30;54.10;24.10;100937.00;;;;5047523;28;20174;-41
2022/08/28 01:07:33;;;;;;;2.70;1.87;;;23.20;54.10;24.10;100927.00;;;;5030343;28;20162;-41
2022/08/28 01:09:59;;;;;;;3.67;2.10;;;23.20;54.20;24.10;100934.00;;;;5047330;28;20611;-41
2022/08/28 01:12:28;;;;;;;4.30;2.27;;;23.30;54.30;23.90;100933.00;;;;5047744;28;20260;-41
2022/08/28 01:14:58;;;;;;;4.10;2.20;;;23.20;54.20;24.00;100927.00;;;;5046661;28;20213;-41
2022/08/28 01:17:25;;;;;;;3.53;2.20;;;23.10;54.20;24.00;100941.00;;;;5047104;28;20677;-41
2022/08/28 01:19:57;;;;;;;5.53;2.30;;;23.10;54.20;24.00;100946.00;;;;5046606;28;20186;-41
2022/08/28 01:22:43;;;;;;;3.93;2.17;;;23.10;54.30;24.00;100943.00;;;;5046504;28;20178;-41
2022/08/28 01:25:15;;;;;;;3.43;2.20;;;23.10;54.30;24.00;100957.00;;;;5047953;28;20236;-41
2022/08/28 01:27:41;;;;;;;3.97;2.50;;;23.10;54.80;24.00;100953.00;;;;5046030;28;20635;-40
2022/08/28 01:30:13;;;;;;;3.73;2.30;;;23.20;54.10;24.00;100954.00;;;;5048579;28;20269;-40
2022/08/28 01:32:46;;;;;;;4.00;2.40;;;23.20;54.10;24.00;100951.00;;;;5051109;28;20564;-40
2022/08/28 01:35:16;;;;;;;6.70;2.30;;;23.20;54.00;24.00;100946.00;;;;5051727;28;20191;-40
2022/08/28 01:37:41;;;;;;;5.63;2.53;;;23.20;54.00;24.00;100954.00;;;;5051695;28;20293;-40
2022/08/28 01:40:09;;;;;;;4.03;2.30;;;23.20;54.60;24.00;100948.00;;;;5051474;28;20602;-39
2022/08/28 01:42:39;;;;;;;2.97;2.27;;;23.20;53.90;23.90;100953.00;;;;5052050;28;20174;-40
2022/08/28 01:45:09;;;;;;;4.93;2.57;;;23.20;54.00;23.90;100955.00;;;;5052568;28;20293;-39
2022/08/28 01:47:38;;;;;;;4.77;2.40;;;23.10;54.00;23.90;100953.00;;;;5051292;28;20241;-41
2022/08/28 01:50:05;;;;;;;4.27;2.27;;;23.10;54.00;23.90;100959.00;;;;5050796;28;20202;-41
2022/08/28 01:52:31;;;;;;;3.33;2.37;;;23.00;53.90;23.90;100954.00;;;;5066541;28;20654;-41
2022/08/28 01:54:56;;;;;;;4.80;2.70;;;23.00;54.10;23.80;100956.00;;;;5050826;28;20226;-40
2022/08/28 01:57:26;;;;;;;4.97;2.60;;;23.00;54.00;23.90;100944.00;;;;5050691;28;20253;-40
2022/08/28 01:59:53;;;;;;;4.40;2.60;;;23.00;54.00;23.90;100942.00;;;;5050786;28;20325;-39
2022/08/28 02:02:18;;;;;;;4.17;2.43;;;23.00;53.90;23.80;100941.00;;;;5050621;28;20190;-41
2022/08/28 02:04:44;;;;;;;5.77;2.43;;;23.00;54.00;23.80;100942.00;;;;5050824;28;20175;-40
2022/08/28 02:07:10;;;;;;;4.43;2.70;;;23.00;54.00;23.80;100936.00;;;;5049964;28;20193;-40
2022/08/28 02:09:36;;;;;;;5.20;2.67;;;23.10;53.90;23.80;100944.00;;;;5050599;28;20624;-40
2022/08/28 02:12:02;;;;;;;3.93;2.40;;;23.10;53.90;23.90;100947.00;;;;5050689;28;20801;-40
2022/08/28 02:14:28;;;;;;;5.93;2.87;;;23.10;53.90;23.90;100953.00;;;;5050719;28;20205;-40
2022/08/28 02:16:54;;;;;;;5.70;2.70;;;23.10;53.90;23.90;100957.00;;;;5050716;28;20171;-40
2022/08/28 02:19:21;;;;;;;4.77;2.67;;;23.20;53.90;23.90;100955.00;;;;5050393;28;20487;-40
2022/08/28 02:21:47;;;;;;;3.63;2.40;;;23.10;53.90;23.90;100952.00;;;;5050806;28;20213;-40
2022/08/28 02:24:13;;;;;;;4.43;2.60;;;23.10;53.90;23.90;100963.00;;;;5050646;28;20167;-42
2022/08/28 02:26:39;;;;;;;4.37;2.37;;;23.10;54.00;23.90;100955.00;;;;5050670;28;20696;-40
2022/08/28 02:29:04;;;;;;;5.53;2.93;;;23.10;53.90;23.80;100972.00;;;;5049957;28;20789;-41
2022/08/28 02:31:30;;;;;;;4.97;2.60;;;23.10;54.00;23.80;100976.00;;;;5050409;28;20174;-40
2022/08/28 02:33:56;;;;;;;5.53;2.87;;;23.00;53.90;23.80;100978.00;;;;5052372;28;20557;-40
2022/08/28 02:36:22;;;;;;;6.03;2.90;;;23.00;53.90;23.80;100972.00;;;;5065704;28;20545;-41
2022/08/28 02:38:49;;;;;;;5.47;3.00;;;23.00;53.90;23.80;100978.00;;;;5056484;28;20600;-40
2022/08/28 02:41:15;;;;;;;3.60;2.70;;;23.10;54.00;23.80;100975.00;;;;5049174;28;20568;-41
2022/08/28 02:43:41;;;;;;;5.87;2.97;;;23.10;53.90;23.80;100970.00;;;;5050240;28;20175;-40
2022/08/28 02:46:07;;;;;;;5.33;2.80;;;23.00;53.90;23.80;100971.00;;;;5049242;28;20266;-41
2022/08/28 02:48:34;;;;;;;5.90;2.80;;;23.00;54.50;23.80;100968.00;;;;5049910;28;20652;-39
2022/08/28 02:51:01;;;;;;;5.17;3.00;;;23.00;53.90;23.80;100974.00;;;;5049915;28;20546;-41
2022/08/28 02:53:28;;;;;;;4.20;2.97;;;23.00;53.80;23.80;100975.00;;;;5049764;28;20293;-41
2022/08/28 02:55:54;;;;;;;4.77;3.00;;;23.00;53.90;23.80;100969.00;;;;5050017;28;20208;-41
2022/08/28 02:58:20;;;;;;;4.50;2.90;;;23.00;53.90;23.70;100980.00;;;;5049294;28;20605;-41
2022/08/28 03:00:46;;;;;;;5.30;3.10;;;22.90;53.80;23.70;100968.00;;;;5049512;28;20178;-40
2022/08/28 03:03:12;;;;;;;5.87;3.20;;;22.90;53.90;23.70;100966.00;;;;5049548;28;20184;-41
2022/08/28 03:05:37;;;;;;;4.77;3.07;;;22.80;54.00;23.60;100969.00;;;;5049233;28;20257;-40
2022/08/28 03:08:03;;;;;;;5.53;3.20;;;22.70;54.10;23.60;100974.00;;;;5049125;28;20214;-39
2022/08/28 03:10:29;;;;;;;6.20;3.20;;;22.70;54.10;23.60;100973.00;;;;5049567;28;20281;-40
2022/08/28 03:12:54;;;;;;;6.77;3.27;;;22.70;54.10;23.60;100970.00;;;;5049649;28;20167;-40
2022/08/28 03:15:20;;;;;;;5.30;3.30;;;22.70;54.10;23.60;100977.00;;;;5050174;28;20202;-41
2022/08/28 03:17:46;;;;;;;7.17;3.60;;;22.70;54.20;23.50;100970.00;;;;5049500;28;20174;-40
2022/08/28 03:20:12;;;;;;;5.33;3.43;;;22.60;54.10;23.50;100982.00;;;;5049637;28;20309;-41
2022/08/28 03:25:23;;;;;;;7.87;3.33;;;22.60;54.30;23.40;100983.00;;;;5049490;28;20233;-40
2022/08/28 03:27:49;;;;;;;6.33;3.73;;;22.50;54.30;23.40;100986.00;;;;5049360;28;20235;-39
2022/08/28 03:30:15;;;;;;;5.47;3.30;;;22.50;54.40;23.30;100982.00;;;;5049095;28;20194;-40
2022/08/28 03:32:40;;;;;;;4.57;3.30;;;22.40;54.40;23.30;100989.00;;;;5049440;28;20793;-40
2022/08/28 03:35:06;;;;;;;7.37;3.50;;;22.40;54.40;23.30;100996.00;;;;5059524;28;20383;-41
2022/08/28 03:37:32;;;;;;;9.93;3.73;;;22.50;54.40;23.30;100995.00;;;;5048476;28;20273;-40
2022/08/28 03:39:59;;;;;;;6.53;3.57;;;22.50;54.40;23.30;100993.00;;;;5049163;28;20625;-40
2022/08/28 03:42:25;;;;;;;10.10;3.83;;;22.60;54.40;23.40;101000.00;;;;5048889;28;20170;-41
2022/08/28 03:44:50;;;;;;;6.07;3.63;;;22.60;54.30;23.40;101004.00;;;;5048612;28;20181;-40
2022/08/28 03:47:16;;;;;;;7.13;3.97;;;22.60;54.40;23.40;101002.00;;;;5048605;28;20209;-40
2022/08/28 03:49:44;;;;;;;11.17;4.20;;;22.60;54.40;23.40;101002.00;;;;5048214;28;20344;-40
2022/08/28 03:52:10;;;;;;;6.13;3.40;;;22.70;54.20;23.40;101006.00;;;;5048394;28;20159;-40
2022/08/28 03:54:35;;;;;;;6.93;3.67;;;22.70;54.10;23.40;101009.00;;;;5048424;28;20200;-40
2022/08/28 03:57:01;;;;;;;8.57;3.70;;;22.70;54.00;23.40;101009.00;;;;5048549;28;20541;-39
2022/08/28 03:59:27;;;;;;;6.23;3.67;;;22.70;53.90;23.40;101014.00;;;;5047686;28;20706;-40
2022/08/28 04:01:53;;;;;;;5.60;3.70;;;22.70;53.90;23.40;101008.00;;;;5048535;28;20284;-40
2022/08/28 04:04:19;;;;;;;8.07;3.87;;;22.70;53.80;23.40;101014.00;;;;5047616;28;20174;-40
2022/08/28 04:06:45;;;;;;;6.10;3.70;;;22.70;53.70;23.50;101012.00;;;;5047755;28;20182;-40
2022/08/28 04:09:11;;;;;;;6.57;4.13;;;22.70;53.70;23.40;101002.00;;;;5047249;28;20201;-40
2022/08/28 04:11:41;;;;;;;6.03;3.87;;;22.70;53.70;23.50;101016.00;;;;5047821;28;20209;-40
2022/08/28 04:14:08;;;;;;;7.37;4.00;;;22.80;53.70;23.50;101020.00;;;;5048072;28;20198;-40
2022/08/28 04:16:34;;;;;;;5.93;3.70;;;22.70;53.70;23.50;101028.00;;;;5048147;28;20178;-40
2022/08/28 04:19:00;;;;;;;6.73;4.00;;;22.80;53.70;23.50;101018.00;;;;5047518;28;20194;-40
2022/08/28 04:21:26;;;;;;;6.20;3.83;;;22.80;53.70;23.50;101016.00;;;;5048599;28;20221;-40
2022/08/28 04:23:52;;;;;;;4.67;3.47;;;22.80;53.70;23.50;101029.00;;;;5048281;28;20262;-40
2022/08/28 04:26:23;;;;;;;8.23;3.63;;;22.80;53.80;23.50;101022.00;;;;5047963;28;20265;-40
2022/08/28 04:28:49;;;;;;;5.87;3.77;;;22.80;53.80;23.50;101023.00;;;;5047650;28;20202;-40
2022/08/28 04:31:15;;;;;;;6.73;4.10;;;22.80;53.80;23.50;101027.00;;;;5048140;28;20257;-40
2022/08/28 04:33:41;;;;;;;5.63;3.80;;;22.80;53.80;23.40;101024.00;;;;5048160;28;20276;-40
2022/08/28 04:36:11;;;;;;;5.03;3.50;;;22.80;53.80;23.50;101035.00;;;;5047771;28;20627;-40
2022/08/28 04:38:38;;;;;;;7.60;4.10;;;22.70;53.80;23.40;101032.00;;;;5047464;28;20646;-40
2022/08/28 04:41:05;;;;;;;7.87;3.70;;;22.70;53.80;23.40;101036.00;;;;5054088;28;20205;-39
2022/08/28 04:43:30;;;;;;;5.67;3.70;;;22.70;53.80;23.40;101035.00;;;;5067423;28;20173;-40
2022/08/28 04:45:57;;;;;;;6.40;4.07;;;22.80;54.50;23.40;101040.00;;;;5068015;28;20178;-40
2022/08/28 04:48:23;;;;;;;7.67;4.40;;;22.70;53.90;23.40;101046.00;;;;5067522;28;20170;-39
2022/08/28 04:50:48;;;;;;;6.57;3.63;;;22.80;54.10;23.40;101041.00;;;;5068123;28;20173;-40
2022/08/28 04:53:16;;;;;;;5.90;3.90;;;22.80;54.00;23.40;101041.00;;;;5068448;28;20643;-40
2022/08/28 04:55:47;;;;;;;7.00;4.10;;;22.80;54.00;23.40;101040.00;;;;5067791;28;20210;-39
2022/08/28 04:58:14;;;;;;;5.87;3.77;;;22.70;53.90;23.40;101050.00;;;;5067343;28;20162;-40
2022/08/28 05:00:44;;;;;;;5.20;3.47;;;22.70;53.90;23.40;101056.00;;;;5066988;28;20635;-39
2022/08/28 05:03:11;;;;;;;5.73;3.90;;;22.70;54.00;23.40;101057.00;;;;5066164;28;20161;-40
2022/08/28 05:05:45;;;;;;;5.47;3.73;;;22.70;54.00;23.40;101052.00;;;;5069792;28;20323;-40
2022/08/28 05:08:12;;;;;;;10.43;3.90;;;22.70;53.90;23.40;101061.00;;;;5071644;28;20168;-40
2022/08/28 05:10:39;;;;;;;5.83;3.77;;;22.70;54.20;23.40;101057.00;;;;5071077;28;20212;-40
2022/08/28 05:13:05;;;;;;;9.33;3.97;;;22.70;54.40;23.30;101068.00;;;;5070970;28;20233;-40
2022/08/28 05:15:32;;;;;;;7.10;3.97;;;22.70;54.60;23.30;101061.00;;;;5071251;28;20300;-40
2022/08/28 05:17:58;;;;;;;7.10;4.03;;;22.70;54.50;23.30;101066.00;;;;5071402;28;20201;-40
2022/08/28 05:20:24;;;;;;;5.97;3.93;;;22.70;54.40;23.30;101063.00;;;;5071196;28;20193;-40
2022/08/28 05:22:50;;;;;;;5.13;3.87;;;22.70;54.50;23.30;101074.00;;;;5071342;28;20166;-40
2022/08/28 05:25:16;;;;;;;9.73;4.40;;;22.70;54.60;23.30;101068.00;;;;5071090;28;20650;-39
2022/08/28 05:27:41;;;;;;;8.10;4.20;;;22.70;54.40;23.30;101072.00;;;;5071522;28;20188;-39
2022/08/28 05:30:09;;;;;;;5.37;4.00;;;22.70;54.20;23.30;101068.00;;;;5070654;28;20197;-40
2022/08/28 05:32:35;;;;;;;7.17;4.43;;;22.70;54.40;23.30;101075.00;;;;5071729;28;20189;-39
2022/08/28 05:35:01;;;;;;;5.00;4.30;;;22.70;54.30;23.20;101075.00;;;;5071959;28;20201;-40
2022/08/28 05:37:27;;;;;;;5.70;4.00;;;22.60;54.20;23.30;101080.00;;;;5070764;28;20197;-40
2022/08/28 05:39:52;;;;;;;8.20;4.43;;;22.60;54.30;23.20;101092.00;;;;5070699;28;20198;-39
2022/08/28 05:42:18;;;;;;;6.87;4.53;;;22.60;55.00;23.20;101088.00;;;;5070997;28;20304;-39
2022/08/28 05:44:44;;;;;;;6.90;4.20;;;22.60;54.40;23.20;101090.00;;;;5070583;28;20208;-40
2022/08/28 05:47:10;;;;;;;6.27;4.37;;;22.60;54.30;23.20;101101.00;;;;5070555;28;20174;-40
2022/08/28 05:49:36;;;;;;;7.27;4.40;;;22.50;54.80;23.20;101090.00;;;;5070841;28;20351;-39
2022/08/28 05:52:02;;;;;;;7.63;4.60;;;22.40;54.10;23.10;101096.00;;;;5071286;28;20162;-40
2022/08/28 05:54:27;;;;;;;6.43;4.30;;;22.50;54.30;23.20;101096.00;;;;5070780;28;20673;-40
2022/08/28 05:56:53;;;;;;;5.93;4.37;;;22.50;54.20;23.10;101102.00;;;;5070776;28;20196;-39
2022/08/28 05:59:19;;;;;;;7.10;4.30;;;22.50;54.20;23.10;101065.00;;;;5070281;28;20197;-41
2022/08/28 06:01:47;;;;;;;6.17;4.07;;;22.40;54.30;23.10;101102.00;;;;5070393;28;20181;-39
2022/08/28 06:04:16;;;;;;;7.33;4.10;;;22.40;54.30;23.10;101109.00;;;;5070630;28;20273;-39
2022/08/28 06:06:42;;;;;;;7.60;4.10;;;22.50;54.30;23.10;101111.00;;;;5070863;28;20519;-39
2022/08/28 06:09:23;;;;;;;6.00;3.70;;;22.40;54.30;23.10;101115.00;;;;5069770;28;20319;-40
2022/08/28 06:11:49;;;;;;;6.43;3.83;;;22.40;54.40;23.10;101109.00;;;;5070638;28;20185;-39
2022/08/28 06:14:17;;;;;;;6.73;4.10;;;22.40;54.30;23.10;101112.00;;;;5070692;28;20674;-40
2022/08/28 06:16:44;;;;;;;9.00;4.30;;;22.40;54.40;23.00;101075.00;;;;5070448;28;20539;-40
2022/08/28 06:19:10;;;;;;;6.30;3.90;;;22.40;54.40;23.00;101118.00;;;;5069422;28;20186;-40
2022/08/28 06:21:37;;;;;;;8.60;4.00;;;22.30;54.30;23.00;101113.00;;;;5071146;28;20284;-41
2022/08/28 06:24:03;;;;;;;7.20;3.93;;;22.40;54.40;23.00;101125.00;;;;5070556;28;20178;-40
2022/08/28 06:26:29;;;;;;;6.77;3.90;;;22.40;54.30;23.00;101120.00;;;;5073827;28;20177;-40
2022/08/28 06:29:05;;;;;;;6.57;3.93;;;22.40;54.40;23.00;101122.00;;;;5074019;28;20196;-40
2022/08/28 06:31:31;;;;;;;6.87;4.07;;;22.40;54.40;23.00;101126.00;;;;4920474;28;20275;-40
2022/08/28 06:33:58;;;;;;;5.93;3.80;;;22.40;54.40;23.00;101126.00;;;;5069935;28;20221;-40
2022/08/28 06:36:26;;;;;;;7.27;3.90;;;22.40;54.30;23.00;101136.00;;;;5069909;28;20274;-41
2022/08/28 06:38:53;;;;;;;6.30;3.83;;;22.30;54.30;23.00;101127.00;;;;5067020;28;20576;-39
2022/08/28 06:41:19;;;;;;;6.40;3.77;;;22.30;54.30;23.00;101141.00;;;;5071313;28;20273;-40
2022/08/28 06:43:45;;;;;;;7.37;4.00;;;22.40;54.40;23.00;101134.00;;;;5071398;28;20257;-40
2022/08/28 06:46:10;;;;;;;6.33;3.60;;;22.30;54.30;23.00;101140.00;;;;5071127;28;20162;-40
2022/08/28 06:48:36;;;;;;;6.97;3.83;;;22.30;54.30;23.00;101139.00;;;;5071057;28;20225;-40
2022/08/28 06:51:05;;;;;;;7.07;3.70;;;22.30;54.50;22.90;101138.00;;;;5071347;28;20264;-40
2022/08/28 06:53:32;;;;;;;6.73;3.70;;;22.30;55.20;22.90;101134.00;;;;5071130;28;20284;-40
2022/08/28 06:56:06;;;;;;;7.47;3.70;;;22.30;54.60;22.90;101136.00;;;;5071212;28;20415;-40
2022/08/28 06:58:32;;;;;;;6.13;3.70;;;22.20;54.60;22.90;101136.00;;;;5070768;28;20251;-39
2022/08/28 07:01:24;;;;;;;5.80;3.67;;;22.20;54.60;22.90;101130.00;;;;5070630;28;20174;-39
2022/08/28 07:03:52;;;;;;;6.07;3.60;;;22.20;54.70;22.80;101132.00;;;;5074953;28;20196;-40
2022/08/28 07:06:18;;;;;;;6.93;3.90;;;22.20;54.90;22.80;101131.00;;;;5070468;28;20193;-40
2022/08/28 07:08:44;;;;;;;7.57;3.57;;;22.30;54.90;22.80;101138.00;;;;5074152;28;20201;-45
2022/08/28 07:11:25;;;;;;;11.73;3.70;;;22.20;54.80;22.80;101135.00;;;;5072351;28;20193;-45
2022/08/28 07:13:51;;;;;;;8.20;3.57;;;22.20;55.20;22.80;101142.00;;;;5070455;28;20312;-44
2022/08/28 07:16:18;;;;;;;9.13;3.70;;;22.20;55.30;22.80;101123.00;;;;5070808;28;20642;-45
2022/08/28 07:18:44;;;;;;;6.90;3.17;;;22.10;55.10;22.80;101131.00;;;;5070432;28;20201;-45
2022/08/28 07:21:09;;;;;;;7.10;3.37;;;22.10;55.00;22.80;101145.00;;;;5070118;28;20166;-45
2022/08/28 07:23:36;;;;;;;5.23;3.40;;;22.10;55.00;22.80;101137.00;;;;5070726;28;20260;-44
2022/08/28 07:26:08;;;;;;;5.37;3.37;;;22.10;54.90;22.80;101145.00;;;;5070925;28;20788;-44
2022/08/28 07:28:34;;;;;;;6.27;3.63;;;22.10;55.00;22.80;101145.00;;;;5068905;28;20284;-44
2022/08/28 07:31:06;;;;;;;5.23;3.23;;;22.10;54.90;22.90;101144.00;;;;5031118;28;20248;-46
2022/08/28 07:33:32;;;;;;;5.40;3.43;;;22.20;55.00;22.80;101149.00;;;;5045885;28;20162;-44
2022/08/28 07:35:58;;;;;;;5.80;3.10;;;22.20;54.90;22.80;101148.00;;;;5070385;28;20242;-45
2022/08/28 07:38:24;;;;;;;5.07;3.30;;;22.10;54.80;22.80;101148.00;;;;5069564;28;20174;-44
2022/08/28 07:40:50;;;;;;;5.97;3.80;;;22.10;54.90;22.80;101144.00;;;;5069526;28;20606;-45
2022/08/28 07:46:04;;;;;;;4.23;3.00;;;22.10;55.00;22.80;101150.00;;;;5069751;28;20204;-46
2022/08/28 07:48:30;;;;;;;8.47;3.57;;;22.10;55.00;22.80;101146.00;;;;5069410;28;20198;-45
2022/08/28 07:50:56;;;;;;;5.20;3.27;;;22.10;55.00;22.80;101146.00;;;;5069742;28;20184;-45
2022/08/28 07:53:21;;;;;;;5.87;3.20;;;22.10;55.00;22.80;101154.00;;;;5069482;28;20174;-45
2022/08/28 07:55:50;;;;;;;4.63;3.20;;;22.10;55.00;22.80;101157.00;;;;5069286;28;20177;-45
2022/08/28 07:58:18;;;;;;;4.43;2.97;;;22.10;55.00;22.80;101160.00;;;;5069352;28;20178;-45
2022/08/28 08:00:44;;;;;;;4.60;2.97;;;22.10;55.10;22.90;101157.00;;;;5069227;28;20184;-45
2022/08/28 08:03:10;;;;;;;3.83;2.87;;;22.10;55.00;22.90;101161.00;;;;5069752;28;20213;-45
2022/08/28 08:05:36;;;;;;;3.77;2.90;;;22.10;55.00;22.90;101163.00;;;;5069198;28;20209;-45
2022/08/28 08:08:02;;;;;;;4.73;3.30;;;22.10;55.00;22.90;101161.00;;;;5069440;28;20596;-45
2022/08/28 08:10:28;;;;;;;5.20;3.40;;;22.10;55.20;22.90;101161.00;;;;5068813;28;20243;-45
2022/08/28 08:12:53;;;;;;;5.57;3.17;;;22.10;55.30;22.90;101157.00;;;;5067579;28;20190;-45
2022/08/28 08:15:20;;;;;;;5.77;3.20;;;22.10;55.10;22.90;101162.00;;;;5069779;28;20237;-45
2022/08/28 08:17:46;;;;;;;9.53;3.40;;;22.20;55.20;22.90;101161.00;;;;5074871;28;20588;-45
2022/08/28 08:20:12;;;;;;;6.43;3.03;;;22.20;55.80;22.90;101159.00;;;;5074704;28;20217;-45
2022/08/28 08:22:38;;;;;;;6.63;3.30;;;22.20;55.70;22.90;101169.00;;;;5071529;28;20176;-45
2022/08/28 08:25:04;;;;;;;7.67;3.63;;;22.20;55.50;22.90;101145.00;;;;5074622;28;20201;-45
2022/08/28 08:27:31;;;;;;;5.57;3.10;;;22.20;55.60;22.90;101161.00;;;;5070719;28;20181;-45
2022/08/28 08:29:57;;;;;;;6.67;3.10;;;22.20;55.50;22.90;101163.00;;;;5071268;28;20281;-43
2022/08/28 08:32:23;;;;;;;5.57;2.97;;;22.30;55.60;22.70;101167.00;;;;5009486;28;20173;-44
2022/08/28 08:34:52;;;;;;;6.93;3.03;;;22.30;55.50;22.90;101165.00;;;;5092198;28;20197;-45
2022/08/28 08:37:18;;;;;;;12.93;3.40;;;22.30;55.60;22.90;101167.00;;;;5091620;28;20207;-45
2022/08/28 08:39:44;;;;;;;8.97;3.67;;;22.30;55.90;22.90;101171.00;;;;5090211;28;20216;-47
2022/08/28 08:42:22;;;;;;;10.20;3.37;;;22.30;56.10;22.90;101168.00;;;;5088979;28;20208;-44
2022/08/28 08:44:48;;;;;;;10.00;3.07;;;22.30;56.50;23.00;101173.00;;;;5087729;28;20874;-44
2022/08/28 08:47:40;;;;;;;6.43;3.23;;;22.30;56.40;23.00;101167.00;;;;5087382;28;20173;-44
2022/08/28 08:50:09;;;;;;;10.13;3.17;;;22.30;56.10;23.00;101171.00;;;;5087679;28;20188;-45
2022/08/28 08:52:43;;;;;;;6.73;3.60;;;22.30;56.00;22.90;101165.00;;;;5096201;28;20208;-44
2022/08/28 08:55:44;;;;;;;4.67;3.00;;;22.30;56.00;23.00;101173.00;;;;5093078;28;20200;-46
2022/08/28 08:58:17;;;;;;;10.13;3.27;;;22.30;56.00;23.00;101172.00;;;;5088554;28;20284;-44
2022/08/28 09:01:16;;;;;;;6.27;3.30;;;22.30;56.10;23.00;101168.00;;;;5070110;28;20173;-44
2022/08/28 09:03:48;;;;;;;6.47;3.10;;;22.30;56.10;22.90;101172.00;;;;5075223;28;20223;-44
2022/08/28 09:06:27;;;;;;;7.23;3.30;;;22.30;56.00;22.90;101175.00;;;;5089104;28;20168;-45
2022/08/28 09:08:58;;;;;;;11.60;3.13;;;22.20;55.70;22.90;101157.00;;;;5071736;28;20192;-45
2022/08/28 09:12:06;;;;;;;5.00;2.90;;;22.20;55.80;23.00;101171.00;;;;5071570;28;20172;-45
2022/08/28 09:14:50;;;;;;;4.57;3.00;;;22.30;55.90;22.90;101186.00;;;;5005866;28;20326;-44
2022/08/28 09:17:18;;;;;;;5.77;2.63;;;22.30;55.80;22.90;101183.00;;;;5081920;28;20553;-44
2022/08/28 09:19:43;;;;;;;4.33;2.97;;;22.30;55.70;22.90;101184.00;;;;5088203;28;20191;-44
2022/08/28 09:22:09;;;;;;;5.90;3.20;;;22.30;55.70;23.00;101183.00;;;;5088557;28;20549;-45
2022/08/28 09:24:38;;;;;;;4.87;3.00;;;22.30;55.60;23.00;101186.00;;;;5087133;28;20191;-45
2022/08/28 09:27:28;;;;;;;5.03;3.10;;;22.30;55.50;23.00;101183.00;;;;5088928;28;20173;-45
2022/08/28 09:30:03;;;;;;;5.07;2.93;;;22.30;55.40;23.00;101190.00;;;;5088557;28;20196;-44
2022/08/28 09:32:33;;;;;;;5.37;3.13;;;22.30;55.40;23.00;101194.00;;;;5089134;28;20176;-45
2022/08/28 09:35:14;;;;;;;4.60;3.00;;;22.30;55.30;23.00;101178.00;;;;5088866;28;20201;-44
2022/08/28 09:37:40;;;;;;;3.33;2.90;;;22.30;55.30;23.00;101186.00;;;;5088212;28;20526;-45
2022/08/28 09:43:25;;;;;;;4.53;2.83;;;22.30;55.30;23.00;101164.00;;;;5088484;28;20216;-44
2022/08/28 09:43:26;;;;;;;4.13;2.83;;;22.30;55.30;23.00;101189.00;;;;5087590;28;20161;-45
2022/08/28 09:46:24;;;;;;;4.43;3.27;;;22.30;55.30;23.00;101190.00;;;;5087470;28;20172;-43
2022/08/28 09:48:51;;;;;;;4.43;2.93;;;22.40;55.30;23.00;101184.00;;;;5087286;28;20227;-45
2022/08/28 09:51:19;;;;;;;3.40;2.70;;;22.30;55.20;23.10;101183.00;;;;5090086;28;20187;-44
2022/08/28 09:53:51;;;;;;;4.17;3.00;;;22.40;55.30;23.10;101174.00;;;;5092259;28;20197;-44
2022/08/28 09:56:31;;;;;;;4.50;2.90;;;22.40;55.30;23.10;101171.00;;;;5092743;28;20238;-44
2022/08/28 09:59:09;;;;;;;4.43;2.83;;;22.40;55.30;23.10;101172.00;;;;5076013;28;20196;-44
2022/08/28 10:01:40;;;;;;;4.83;2.80;;;22.40;55.20;23.10;101164.00;;;;5092745;28;20221;-45
2022/08/28 10:04:34;;;;;;;4.23;2.87;;;22.40;55.20;23.20;101168.00;;;;5092867;28;20180;-45
2022/08/28 10:07:24;;;;;;;3.57;2.97;;;22.40;55.20;23.20;101168.00;;;;5092786;28;20173;-45
2022/08/28 10:10:23;;;;;;;3.77;2.80;;;22.40;55.20;23.20;101170.00;;;;5091113;28;20216;-44
2022/08/28 10:13:15;;;;;;;3.57;2.57;;;22.40;55.10;23.20;101174.00;;;;5061740;28;20165;-44
2022/08/28 10:16:30;;;;;;;4.57;2.77;;;22.40;55.10;23.20;101173.00;;;;5090967;28;20520;-45
2022/08/28 10:19:25;;;;;;;3.93;2.70;;;22.40;55.00;23.20;101170.00;;;;5092067;28;20708;-44
2022/08/28 10:22:35;;;;;;;3.43;2.93;;;22.40;55.00;23.20;101149.00;;;;5076881;28;20204;-44
2022/08/28 10:25:37;;;;;;;4.87;2.73;;;22.40;55.00;23.20;101176.00;;;;5078158;28;20197;-46
2022/08/28 10:28:52;;;;;;;4.87;3.03;;;22.40;55.00;23.20;101172.00;;;;5089795;28;20195;-44
2022/08/28 10:31:22;;;;;;;3.77;2.80;;;22.40;55.00;23.20;101164.00;;;;5090585;28;20177;-44
2022/08/28 10:34:10;;;;;;;4.63;2.80;;;22.40;55.10;23.20;101170.00;;;;5073888;28;20796;-44
2022/08/28 10:36:35;;;;;;;4.13;2.60;;;22.40;55.40;23.30;101177.00;;;;5091538;28;20180;-45
2022/08/28 10:39:33;;;;;;;4.77;2.80;;;22.40;55.50;23.30;101176.00;;;;5095797;28;20235;-45
2022/08/28 10:42:01;;;;;;;3.57;2.67;;;22.40;55.70;23.30;101171.00;;;;5094281;28;20725;-45
2022/08/28 10:44:54;;;;;;;3.00;2.53;;;22.40;55.60;23.30;101170.00;;;;5090674;28;20653;-45
2022/08/28 10:47:20;;;;;;;3.27;2.60;;;22.40;55.60;23.30;101174.00;;;;5099775;28;20284;-45
2022/08/28 10:49:48;;;;;;;3.83;2.70;;;22.40;55.60;23.30;101167.00;;;;5085813;28;20199;-45
2022/08/28 10:52:27;;;;;;;3.43;2.80;;;22.40;55.50;23.30;101167.00;;;;5082092;28;20173;-45
2022/08/28 10:55:21;;;;;;;4.13;2.80;;;22.40;55.50;23.30;101174.00;;;;5073612;28;20204;-46
2022/08/28 10:57:56;;;;;;;4.57;2.80;;;22.40;55.70;23.30;101170.00;;;;5076573;28;20173;-44
2022/08/28 11:00:25;;;;;;;3.87;2.50;;;22.50;55.80;23.30;101163.00;;;;5090151;28;20193;-44
2022/08/28 11:02:54;;;;;;;4.20;2.80;;;22.50;55.60;23.40;101167.00;;;;5089923;28;20664;-44
2022/08/28 11:05:22;;;;;;;4.00;2.93;;;22.50;55.50;23.40;101164.00;;;;5090034;28;20187;-44
2022/08/28 11:07:51;;;;;;;4.43;2.70;;;22.50;55.50;23.40;101138.00;;;;5089470;28;20246;-44